createdAt,value
2022-12-25T00:00:32.703Z,97593.13
2022-12-25T00:02:59.447Z,97580.06
2022-12-25T00:05:26.249Z,97593.13
2022-12-25T00:07:53.033Z,97595.19
2022-12-25T00:10:19.719Z,97591.31
2022-12-25T00:12:46.278Z,97591.31
2022-12-25T00:15:12.888Z,97586.16
2022-12-25T00:17:39.406Z,97594.81
2022-12-25T00:20:06.903Z,97598.44
2022-12-25T00:22:33.560Z,97596.94
2022-12-25T00:25:00.141Z,97593.00
2022-12-25T00:27:26.715Z,97599.41
2022-12-25T00:29:53.288Z,97595.50
2022-12-25T00:32:19.809Z,97595.50
2022-12-25T00:34:47.775Z,97583.69
2022-12-25T00:37:14.339Z,97597.25
2022-12-25T00:39:40.937Z,97607.69
2022-12-25T00:42:19.564Z,97608.94
2022-12-25T00:44:50.662Z,97592.75
2022-12-25T00:47:18.196Z,97595.16
2022-12-25T00:49:45.250Z,97601.06
2022-12-25T00:52:11.918Z,97597.13
2022-12-25T00:54:38.554Z,97581.44
2022-12-25T00:57:05.131Z,97582.16
2022-12-25T00:59:33.302Z,97594.06
2022-12-25T01:02:19.949Z,97588.97
2022-12-25T01:04:46.637Z,97591.69
2022-12-25T01:07:13.260Z,97595.28
2022-12-25T01:09:58.629Z,97588.22
2022-12-25T01:12:25.213Z,97588.31
2022-12-25T01:14:51.731Z,97582.72
2022-12-25T01:17:18.327Z,97594.63
2022-12-25T01:19:44.996Z,97587.56
2022-12-25T01:22:11.790Z,97587.63
2022-12-25T01:24:38.353Z,97584.56
2022-12-25T01:27:05.067Z,97582.50
2022-12-25T01:29:31.700Z,97589.31
2022-12-25T01:31:58.283Z,97583.78
2022-12-25T01:34:24.818Z,97582.28
2022-12-25T01:36:51.341Z,97585.44
2022-12-25T01:39:17.866Z,97589.47
2022-12-25T01:41:44.563Z,97593.38
2022-12-25T01:44:13.933Z,97594.16
2022-12-25T01:46:40.762Z,97591.88
2022-12-25T01:49:21.001Z,97595.03
2022-12-25T01:51:52.393Z,97582.47
2022-12-25T01:54:26.149Z,97586.31
2022-12-25T01:56:55.355Z,97575.28
2022-12-25T01:59:26.072Z,97587.19
2022-12-25T02:01:52.855Z,97597.13
2022-12-25T02:04:38.876Z,97596.00
2022-12-25T02:07:17.567Z,97595.66
2022-12-25T02:09:45.298Z,97596.88
2022-12-25T02:12:25.138Z,97588.16
2022-12-25T02:14:59.652Z,97577.25
2022-12-25T02:17:44.614Z,97598.25
2022-12-25T02:20:48.929Z,97606.63
2022-12-25T02:23:52.936Z,97606.72
2022-12-25T02:26:55.535Z,97617.13
2022-12-25T02:29:47.797Z,97625.47
2022-12-25T02:32:30.443Z,97610.13
2022-12-25T02:35:11.866Z,97617.38
2022-12-25T02:37:45.860Z,97623.34
2022-12-25T02:40:21.284Z,97620.16
2022-12-25T02:43:19.989Z,97626.16
2022-12-25T02:46:14.066Z,97630.94
2022-12-25T02:49:22.156Z,97634.06
2022-12-25T02:52:14.696Z,97627.63
2022-12-25T02:55:04.783Z,97622.44
2022-12-25T02:57:56.980Z,97628.88
2022-12-25T03:00:41.901Z,97629.25
2022-12-25T03:03:29.372Z,97629.63
2022-12-25T03:06:18.304Z,97622.44
2022-12-25T03:08:48.718Z,97627.94
2022-12-25T03:11:33.398Z,97629.84
2022-12-25T03:14:24.607Z,97620.03
2022-12-25T03:16:55.377Z,97641.00
2022-12-25T03:19:44.920Z,97646.50
2022-12-25T03:22:42.163Z,97649.69
2022-12-25T03:25:28.421Z,97655.31
2022-12-25T03:27:56.439Z,97667.91
2022-12-25T03:30:45.103Z,97677.47
2022-12-25T03:33:43.857Z,97684.22
2022-12-25T03:36:24.726Z,97688.59
2022-12-25T03:39:18.355Z,97687.75
2022-12-25T03:42:08.705Z,97696.09
2022-12-25T03:45:07.349Z,97698.91
2022-12-25T03:48:06.637Z,97696.50
2022-12-25T03:51:01.547Z,97700.50
2022-12-25T03:53:52.653Z,97705.16
2022-12-25T03:56:39.101Z,97707.56
2022-12-25T03:59:24.529Z,97704.41
2022-12-25T04:02:10.082Z,97682.28
2022-12-25T04:04:55.538Z,97698.47
2022-12-25T04:07:40.574Z,97703.66
2022-12-25T04:10:26.589Z,97706.47
2022-12-25T04:13:12.001Z,97699.34
2022-12-25T04:15:56.748Z,97704.19
2022-12-25T04:18:41.991Z,97704.59
2022-12-25T04:21:27.378Z,97714.13
2022-12-25T04:24:12.176Z,97704.59
2022-12-25T04:26:57.209Z,97711.72
2022-12-25T04:29:42.603Z,97713.28
2022-12-25T04:32:27.568Z,97720.06
2022-12-25T04:35:12.355Z,97710.16
2022-12-25T04:37:39.050Z,97734.81
2022-12-25T04:40:06.473Z,97739.19
2022-12-25T04:42:32.917Z,97743.94
2022-12-25T04:44:59.429Z,97738.03
2022-12-25T04:47:25.956Z,97743.63
2022-12-25T04:49:52.582Z,97737.66
2022-12-25T04:52:19.161Z,97744.41
2022-12-25T04:54:45.725Z,97750.72
2022-12-25T04:57:12.240Z,97749.16
2022-12-25T04:59:38.816Z,97755.09
2022-12-25T05:02:05.443Z,97761.09
2022-12-25T05:04:32.135Z,97764.28
2022-12-25T05:06:58.751Z,97755.53
2022-12-25T05:09:26.519Z,97768.66
2022-12-25T05:11:53.065Z,97774.28
2022-12-25T05:14:19.651Z,97783.38
2022-12-25T05:16:46.399Z,97770.72
2022-12-25T05:19:13.195Z,97789.81
2022-12-25T05:21:39.688Z,97792.19
2022-12-25T05:24:06.567Z,97787.44
2022-12-25T05:26:33.166Z,97782.69
2022-12-25T05:29:00.131Z,97784.66
2022-12-25T05:31:26.766Z,97789.88
2022-12-25T05:33:53.433Z,97791.47
2022-12-25T05:36:20.011Z,97800.63
2022-12-25T05:38:46.826Z,97776.84
2022-12-25T05:41:13.365Z,97796.25
2022-12-25T05:43:39.938Z,97795.47
2022-12-25T05:46:08.559Z,97799.03
2022-12-25T05:48:37.121Z,97803.41
2022-12-25T05:51:08.943Z,97789.94
2022-12-25T05:53:36.102Z,97818.09
2022-12-25T05:56:04.700Z,97820.06
2022-12-25T05:58:32.677Z,97822.09
2022-12-25T06:00:59.655Z,97826.84
2022-12-25T06:03:26.600Z,97826.84
2022-12-25T06:05:53.629Z,97840.75
2022-12-25T06:08:20.324Z,97823.66
2022-12-25T06:10:47.446Z,97823.28
2022-12-25T06:13:14.036Z,97828.03
2022-12-25T06:15:43.496Z,97821.66
2022-12-25T06:18:10.863Z,97838.34
2022-12-25T06:20:40.751Z,97836.75
2022-12-25T06:23:07.402Z,97838.34
2022-12-25T06:25:33.970Z,97840.72
2022-12-25T06:28:00.568Z,97837.56
2022-12-25T06:30:27.104Z,97852.63
2022-12-25T06:32:53.662Z,97849.41
2022-12-25T06:35:20.199Z,97853.38
2022-12-25T06:37:46.768Z,97854.94
2022-12-25T06:40:13.634Z,97856.94
2022-12-25T06:42:40.318Z,97860.06
2022-12-25T06:45:07.368Z,97866.81
2022-12-25T06:47:33.975Z,97871.59
2022-12-25T06:50:00.692Z,97871.56
2022-12-25T06:52:27.291Z,97881.13
2022-12-25T06:54:53.886Z,97870.81
2022-12-25T06:57:20.516Z,97868.41
2022-12-25T06:59:52.958Z,97869.59
2022-12-25T07:02:23.383Z,97876.75
2022-12-25T07:04:50.210Z,97873.56
2022-12-25T07:07:16.843Z,97881.88
2022-12-25T07:09:43.551Z,97887.44
2022-12-25T07:12:12.789Z,97888.19
2022-12-25T07:14:39.629Z,97891.38
2022-12-25T07:17:06.252Z,97887.78
2022-12-25T07:19:32.816Z,97904.81
2022-12-25T07:21:59.412Z,97904.81
2022-12-25T07:24:26.034Z,97909.94
2022-12-25T07:26:52.658Z,97901.59
2022-12-25T07:29:19.804Z,97912.69
2022-12-25T07:31:46.857Z,97912.63
2022-12-25T07:34:13.478Z,97912.22
2022-12-25T07:36:40.045Z,97912.56
2022-12-25T07:39:06.602Z,97913.34
2022-12-25T07:41:33.247Z,97918.84
2022-12-25T07:43:59.737Z,97926.78
2022-12-25T07:46:26.999Z,97935.09
2022-12-25T07:48:53.672Z,97943.81
2022-12-25T07:51:20.267Z,97941.41
2022-12-25T07:53:46.856Z,97937.75
2022-12-25T07:56:18.644Z,97940.88
2022-12-25T07:58:46.027Z,97946.41
2022-12-25T08:01:12.559Z,97951.94
2022-12-25T08:03:39.686Z,97951.50
2022-12-25T08:06:08.878Z,97954.25
2022-12-25T08:08:36.716Z,97957.75
2022-12-25T08:11:03.429Z,97956.47
2022-12-25T08:13:31.908Z,97967.56
2022-12-25T08:16:03.030Z,97969.91
2022-12-25T08:18:31.019Z,97968.25
2022-12-25T08:21:02.758Z,97972.97
2022-12-25T08:23:29.305Z,97978.44
2022-12-25T08:26:05.471Z,97976.41
2022-12-25T08:28:33.982Z,97978.72
2022-12-25T08:31:06.542Z,97978.16
2022-12-25T08:33:33.175Z,97978.47
2022-12-25T08:36:05.143Z,97981.59
2022-12-25T08:38:31.769Z,97971.50
2022-12-25T08:40:58.350Z,97966.69
2022-12-25T08:43:24.971Z,97974.47
2022-12-25T08:45:51.542Z,97978.34
2022-12-25T08:48:18.638Z,97970.88
2022-12-25T08:50:53.080Z,97974.78
2022-12-25T08:53:20.978Z,97960.25
2022-12-25T08:55:47.979Z,97967.31
2022-12-25T08:58:14.904Z,97973.78
2022-12-25T09:00:41.616Z,97975.75
2022-12-25T09:03:08.521Z,97966.22
2022-12-25T09:05:38.577Z,97956.56
2022-12-25T09:08:05.288Z,97930.19
2022-12-25T09:10:36.393Z,97920.66
2022-12-25T09:13:03.285Z,97902.47
2022-12-25T09:15:30.364Z,97934.22
2022-12-25T09:17:56.942Z,97940.91
2022-12-25T09:20:23.488Z,97946.97
2022-12-25T09:22:50.180Z,97951.00
2022-12-25T09:25:16.819Z,97944.84
2022-12-25T09:27:43.864Z,97949.53
2022-12-25T09:30:11.254Z,97940.41
2022-12-25T09:32:40.362Z,97953.41
2022-12-25T09:35:10.450Z,97955.56
2022-12-25T09:37:37.033Z,97959.75
2022-12-25T09:40:04.032Z,97965.94
2022-12-25T09:42:32.479Z,97969.44
2022-12-25T09:45:12.375Z,97960.63
2022-12-25T09:47:41.352Z,97961.63
2022-12-25T09:50:24.405Z,97957.03
2022-12-25T09:52:58.610Z,97951.00
2022-12-25T09:55:29.326Z,97953.91
2022-12-25T09:58:01.457Z,97941.72
2022-12-25T10:00:40.503Z,97947.84
2022-12-25T10:03:42.569Z,97938.91
2022-12-25T10:06:20.931Z,97943.25
2022-12-25T10:09:03.014Z,97928.56
2022-12-25T10:11:59.260Z,97936.16
2022-12-25T10:14:33.505Z,97938.75
2022-12-25T10:17:32.128Z,97931.09
2022-12-25T10:20:08.479Z,97929.72
2022-12-25T10:22:40.436Z,97933.13
2022-12-25T10:25:15.637Z,97933.75
2022-12-25T10:27:43.120Z,97921.50
2022-12-25T10:30:21.813Z,97918.56
2022-12-25T10:32:49.878Z,97922.16
2022-12-25T10:35:22.159Z,97917.94
2022-12-25T10:38:12.413Z,97906.53
2022-12-25T10:40:51.809Z,97908.22
2022-12-25T10:43:24.821Z,97911.38
2022-12-25T10:45:51.719Z,97908.22
2022-12-25T10:48:42.292Z,97909.47
2022-12-25T10:51:09.083Z,97906.66
2022-12-25T10:53:43.277Z,97901.63
2022-12-25T10:56:27.814Z,97889.41
2022-12-25T10:59:07.565Z,97887.91
2022-12-25T11:01:34.342Z,97886.31
2022-12-25T11:04:01.084Z,97883.53
2022-12-25T11:06:30.966Z,97878.22
2022-12-25T11:08:59.884Z,97877.47
2022-12-25T11:11:28.167Z,97876.53
2022-12-25T11:13:58.923Z,97868.81
2022-12-25T11:16:38.482Z,97859.69
2022-12-25T11:19:24.773Z,97874.56
2022-12-25T11:21:53.953Z,97866.84
2022-12-25T11:24:25.207Z,97869.72
2022-12-25T11:26:57.815Z,97861.22
2022-12-25T11:29:45.039Z,97867.81
2022-12-25T11:32:29.684Z,97868.47
2022-12-25T11:34:58.126Z,97857.47
2022-12-25T11:37:38.614Z,97855.94
2022-12-25T11:40:06.919Z,97861.44
2022-12-25T11:42:36.692Z,97871.63
2022-12-25T11:45:14.993Z,97863.44
2022-12-25T11:48:14.196Z,97864.63
2022-12-25T11:50:45.479Z,97861.34
2022-12-25T11:53:31.586Z,97867.78
2022-12-25T11:56:06.169Z,97864.31
2022-12-25T11:58:44.711Z,97870.00
2022-12-25T12:01:44.734Z,97863.56
2022-12-25T12:04:29.949Z,97866.25
2022-12-25T12:07:04.606Z,97867.81
2022-12-25T12:09:33.896Z,97870.94
2022-12-25T12:12:03.490Z,97870.25
2022-12-25T12:15:06.063Z,97871.31
2022-12-25T12:17:32.918Z,97867.81
2022-12-25T12:20:11.228Z,97862.63
2022-12-25T12:22:37.998Z,97878.50
2022-12-25T12:25:08.028Z,97870.63
2022-12-25T12:27:40.699Z,97868.66
2022-12-25T12:30:23.926Z,97868.41
2022-12-25T12:32:56.088Z,97864.59
2022-12-25T12:35:34.252Z,97873.25
2022-12-25T12:38:08.016Z,97872.41
2022-12-25T12:40:41.891Z,97874.59
2022-12-25T12:43:28.683Z,97866.69
2022-12-25T12:46:07.129Z,97873.56
2022-12-25T12:48:42.838Z,97870.44
2022-12-25T12:51:15.453Z,97867.06
2022-12-25T12:53:43.065Z,97864.53
2022-12-25T12:56:16.423Z,97867.50
2022-12-25T12:58:49.868Z,97877.38
2022-12-25T13:01:19.263Z,97866.09
2022-12-25T13:04:04.455Z,97871.94
2022-12-25T13:06:41.613Z,97877.13
2022-12-25T13:09:10.867Z,97869.75
2022-12-25T13:11:43.168Z,97877.94
2022-12-25T13:14:16.939Z,97879.94
2022-12-25T13:16:46.555Z,97878.41
2022-12-25T13:19:15.040Z,97876.06
2022-12-25T13:21:58.995Z,97881.69
2022-12-25T13:24:30.809Z,97885.81
2022-12-25T13:26:58.991Z,97888.03
2022-12-25T13:29:28.567Z,97889.28
2022-12-25T13:31:55.527Z,97893.88
2022-12-25T13:34:32.463Z,97890.88
2022-12-25T13:37:10.317Z,97880.88
2022-12-25T13:39:46.078Z,97890.50
2022-12-25T13:42:17.213Z,97893.63
2022-12-25T13:44:48.062Z,97889.53
2022-12-25T13:47:30.683Z,97894.41
2022-12-25T13:49:59.432Z,97892.38
2022-12-25T13:52:37.340Z,97890.78
2022-12-25T13:55:27.505Z,97907.38
2022-12-25T13:58:03.777Z,97911.13
2022-12-25T14:00:39.737Z,97908.91
2022-12-25T14:03:08.582Z,97909.50
2022-12-25T14:05:42.899Z,97909.94
2022-12-25T14:08:21.947Z,97903.16
2022-12-25T14:10:50.659Z,97917.69
2022-12-25T14:13:20.077Z,97916.25
2022-12-25T14:15:48.584Z,97914.16
2022-12-25T14:18:17.328Z,97907.66
2022-12-25T14:21:01.159Z,97911.41
2022-12-25T14:23:40.694Z,97889.59
2022-12-25T14:26:07.602Z,97916.13
2022-12-25T14:28:34.545Z,97916.09
2022-12-25T14:31:03.506Z,97921.06
2022-12-25T14:33:38.238Z,97925.13
2022-12-25T14:36:06.700Z,97931.31
2022-12-25T14:38:38.123Z,97926.19
2022-12-25T14:41:21.146Z,97927.63
2022-12-25T14:43:55.463Z,97934.91
2022-12-25T14:46:27.557Z,97931.41
2022-12-25T14:49:05.701Z,97936.50
2022-12-25T14:51:35.368Z,97936.06
2022-12-25T14:54:04.373Z,97932.50
2022-12-25T14:56:39.254Z,97921.28
2022-12-25T14:59:07.769Z,97942.81
2022-12-25T15:01:40.330Z,97940.09
2022-12-25T15:04:10.066Z,97939.97
2022-12-25T15:06:39.853Z,97948.41
2022-12-25T15:09:14.857Z,97944.03
2022-12-25T15:11:41.467Z,97949.28
2022-12-25T15:14:07.993Z,97948.06
2022-12-25T15:16:42.845Z,97944.28
2022-12-25T15:19:19.252Z,97936.78
2022-12-25T15:21:48.434Z,97944.97
2022-12-25T15:24:15.473Z,97947.72
2022-12-25T15:26:42.381Z,97960.72
2022-12-25T15:29:09.076Z,97961.69
2022-12-25T15:31:38.816Z,97956.72
2022-12-25T15:34:15.595Z,97963.81
2022-12-25T15:36:42.250Z,97965.63
2022-12-25T15:39:08.787Z,97973.31
2022-12-25T15:41:56.606Z,97980.78
2022-12-25T15:44:24.071Z,97975.25
2022-12-25T15:46:51.159Z,97982.59
2022-12-25T15:49:18.204Z,97993.72
2022-12-25T15:51:45.910Z,97989.84
2022-12-25T15:54:12.587Z,97990.72
2022-12-25T15:56:46.888Z,97990.84
2022-12-25T15:59:15.884Z,97989.41
2022-12-25T16:01:47.441Z,97991.06
2022-12-25T16:04:14.076Z,97997.41
2022-12-25T16:06:40.833Z,97989.56
2022-12-25T16:09:07.441Z,97993.81
2022-12-25T16:11:34.155Z,97995.03
2022-12-25T16:14:00.752Z,97986.50
2022-12-25T16:16:27.389Z,97993.06
2022-12-25T16:18:53.947Z,97989.25
2022-12-25T16:21:22.047Z,98001.78
2022-12-25T16:23:48.684Z,98000.38
2022-12-25T16:26:15.484Z,98000.13
2022-12-25T16:28:42.272Z,97993.53
2022-12-25T16:31:09.032Z,98002.00
2022-12-25T16:33:35.682Z,98003.66
2022-12-25T16:36:02.281Z,98008.38
2022-12-25T16:38:28.921Z,98010.31
2022-12-25T16:40:58.179Z,98003.94
2022-12-25T16:43:25.230Z,98009.47
2022-12-25T16:45:52.353Z,97995.63
2022-12-25T16:48:19.297Z,98016.72
2022-12-25T16:50:46.184Z,98019.25
2022-12-25T16:53:12.746Z,98019.88
2022-12-25T16:55:42.041Z,98024.38
2022-12-25T16:58:08.675Z,98018.03
2022-12-25T17:00:35.423Z,98020.03
2022-12-25T17:03:02.251Z,98022.03
2022-12-25T17:05:29.156Z,98018.00
2022-12-25T17:07:55.808Z,98021.97
2022-12-25T17:10:22.842Z,98019.66
2022-12-25T17:12:49.646Z,98018.91
2022-12-25T17:15:17.234Z,98019.72
2022-12-25T17:17:44.220Z,98028.47
2022-12-25T17:20:11.285Z,98029.22
2022-12-25T17:22:37.905Z,98008.13
2022-12-25T17:25:04.855Z,98020.84
2022-12-25T17:27:31.509Z,98033.09
2022-12-25T17:29:58.123Z,98035.44
2022-12-25T17:32:24.733Z,98035.47
2022-12-25T17:34:51.485Z,98041.16
2022-12-25T17:37:18.046Z,98049.84
2022-12-25T17:39:44.845Z,98050.59
2022-12-25T17:42:11.415Z,98057.41
2022-12-25T17:44:38.013Z,98055.25
2022-12-25T17:47:04.790Z,98057.63
2022-12-25T17:49:31.701Z,98061.53
2022-12-25T17:51:58.384Z,98063.16
2022-12-25T17:54:24.993Z,98065.31
2022-12-25T17:56:51.531Z,98064.97
2022-12-25T17:59:18.689Z,98068.94
2022-12-25T18:01:46.932Z,98068.09
2022-12-25T18:04:13.889Z,98045.09
2022-12-25T18:06:40.627Z,98058.59
2022-12-25T18:09:07.404Z,98074.44
2022-12-25T18:11:37.642Z,98072.06
2022-12-25T18:14:06.113Z,98085.00
2022-12-25T18:16:35.633Z,98091.09
2022-12-25T18:19:02.898Z,98082.44
2022-12-25T18:21:29.701Z,98090.13
2022-12-25T18:23:56.620Z,98092.53
2022-12-25T18:26:23.503Z,98088.09
2022-12-25T18:28:51.035Z,98083.69
2022-12-25T18:31:20.692Z,98085.22
2022-12-25T18:33:47.963Z,98090.41
2022-12-25T18:36:17.336Z,98088.00
2022-12-25T18:38:43.995Z,98083.56
2022-12-25T18:41:11.847Z,98083.56
2022-12-25T18:43:53.332Z,98097.03
2022-12-25T18:46:24.707Z,98093.41
2022-12-25T18:48:52.127Z,98098.22
2022-12-25T18:51:18.944Z,98101.78
2022-12-25T18:53:45.600Z,98105.47
2022-12-25T18:56:17.891Z,98083.66
2022-12-25T18:58:45.361Z,98101.22
2022-12-25T19:01:13.346Z,98102.41
2022-12-25T19:03:40.092Z,98098.88
2022-12-25T19:06:07.058Z,98103.59
2022-12-25T19:08:33.619Z,98108.38
2022-12-25T19:11:00.207Z,98105.97
2022-12-25T19:13:26.822Z,98109.91
2022-12-25T19:15:58.399Z,98102.72
2022-12-25T19:18:25.358Z,98094.03
2022-12-25T19:20:51.905Z,98110.78
2022-12-25T19:23:18.465Z,98111.63
2022-12-25T19:25:45.616Z,98113.25
2022-12-25T19:28:12.472Z,98089.53
2022-12-25T19:30:39.047Z,98116.50
2022-12-25T19:33:07.376Z,98108.56
2022-12-25T19:35:39.430Z,98112.97
2022-12-25T19:38:05.993Z,98109.88
2022-12-25T19:40:36.878Z,98130.13
2022-12-25T19:43:03.614Z,98134.94
2022-12-25T19:45:30.334Z,98133.31
2022-12-25T19:47:58.189Z,98115.03
2022-12-25T19:50:28.685Z,98134.88
2022-12-25T19:52:56.018Z,98135.72
2022-12-25T19:55:22.597Z,98138.97
2022-12-25T19:57:49.738Z,98137.50
2022-12-25T20:00:16.716Z,98143.06
2022-12-25T20:02:44.758Z,98145.06
2022-12-25T20:05:11.952Z,98147.09
2022-12-25T20:07:38.896Z,98153.47
2022-12-25T20:10:06.075Z,98155.50
2022-12-25T20:12:32.912Z,98154.28
2022-12-25T20:14:59.548Z,98154.69
2022-12-25T20:17:26.738Z,98157.47
2022-12-25T20:19:53.899Z,98157.50
2022-12-25T20:22:22.082Z,98150.34
2022-12-25T20:24:51.804Z,98148.72
2022-12-25T20:27:18.636Z,98140.41
2022-12-25T20:29:45.455Z,98167.06
2022-12-25T20:32:12.228Z,98163.91
2022-12-25T20:34:39.012Z,98153.53
2022-12-25T20:37:05.719Z,98157.50
2022-12-25T20:39:32.557Z,98144.81
2022-12-25T20:41:59.265Z,98161.50
2022-12-25T20:44:26.708Z,98162.72
2022-12-25T20:46:53.253Z,98154.38
2022-12-25T20:49:19.841Z,98161.53
2022-12-25T20:51:46.416Z,98159.94
2022-12-25T20:54:14.961Z,98161.13
2022-12-25T20:56:41.673Z,98161.91
2022-12-25T20:59:09.385Z,98150.41
2022-12-25T21:01:36.051Z,98156.38
2022-12-25T21:04:02.876Z,98160.34
2022-12-25T21:06:29.647Z,98152.00
2022-12-25T21:08:56.605Z,98145.63
2022-12-25T21:11:23.802Z,98167.09
2022-12-25T21:13:50.602Z,98175.78
2022-12-25T21:16:22.298Z,98176.59
2022-12-25T21:18:52.254Z,98181.72
2022-12-25T21:21:20.450Z,98180.47
2022-12-25T21:23:47.151Z,98171.72
2022-12-25T21:26:21.011Z,98180.00
2022-12-25T21:28:48.648Z,98185.16
2022-12-25T21:31:15.325Z,98174.03
2022-12-25T21:33:51.673Z,98176.47
2022-12-25T21:36:30.670Z,98168.84
2022-12-25T21:39:03.475Z,98180.66
2022-12-25T21:41:31.469Z,98186.28
2022-12-25T21:43:58.993Z,98185.91
2022-12-25T21:46:26.559Z,98183.94
2022-12-25T21:48:53.986Z,98185.16
2022-12-25T21:51:39.953Z,98182.75
2022-12-25T21:54:07.246Z,98178.75
2022-12-25T21:56:39.785Z,98179.44
2022-12-25T21:59:12.287Z,98178.63
2022-12-25T22:01:39.184Z,98184.59
2022-12-25T22:04:07.737Z,98192.94
2022-12-25T22:06:52.825Z,98189.31
2022-12-25T22:09:20.760Z,98188.88
2022-12-25T22:12:06.191Z,98189.22
2022-12-25T22:14:54.925Z,98179.72
2022-12-25T22:17:48.382Z,98177.72
2022-12-25T22:20:19.097Z,98184.91
2022-12-25T22:22:45.656Z,98178.53
2022-12-25T22:25:12.872Z,98178.91
2022-12-25T22:27:41.331Z,98179.25
2022-12-25T22:30:11.754Z,98182.38
2022-12-25T22:32:39.133Z,98162.13
2022-12-25T22:35:06.651Z,98177.69
2022-12-25T22:37:33.537Z,98164.94
2022-12-25T22:40:02.227Z,98185.69
2022-12-25T22:42:29.005Z,98201.19
2022-12-25T22:44:55.581Z,98202.34
2022-12-25T22:47:22.124Z,98207.09
2022-12-25T22:49:49.289Z,98192.06
2022-12-25T22:52:15.873Z,98195.22
2022-12-25T22:54:42.412Z,98176.19
2022-12-25T22:57:09.019Z,98172.97
2022-12-25T22:59:35.617Z,98191.25
2022-12-25T23:02:02.312Z,98186.41
2022-12-25T23:04:29.374Z,98189.88
2022-12-25T23:06:56.446Z,98191.78
2022-12-25T23:09:27.659Z,98193.75
2022-12-25T23:11:56.500Z,98191.34
2022-12-25T23:14:39.164Z,98199.66
2022-12-25T23:17:31.558Z,98203.97
2022-12-25T23:20:18.528Z,98207.50
2022-12-25T23:23:03.909Z,98201.94
2022-12-25T23:25:49.025Z,98209.03
2022-12-25T23:28:35.694Z,98210.19
2022-12-25T23:31:02.316Z,98202.56
2022-12-25T23:33:28.957Z,98209.59
2022-12-25T23:35:55.599Z,98208.72
2022-12-25T23:38:22.229Z,98207.94
2022-12-25T23:40:48.842Z,98209.50
2022-12-25T23:43:15.373Z,98215.09
2022-12-25T23:45:42.073Z,98218.63
2022-12-25T23:48:08.637Z,98228.91
2022-12-25T23:50:35.183Z,98230.69
2022-12-25T23:53:01.698Z,98233.88
2022-12-25T23:55:28.229Z,98240.63
2022-12-25T23:57:54.829Z,98246.44
